TimeEET,TemperatureF,Dew PointF,Humidity,Sea Level PressureIn,VisibilityMPH,Wind Direction,Wind SpeedMPH,Gust SpeedMPH,PrecipitationIn,Events,Conditions,WindDirDegrees,DateUTC
12:20 AM,44.6,42.8,93,29.80,-9999.0,North,-9999.0,-,N/A,,Mostly Cloudy,0,2013-01-05 22:20:00
12:50 AM,42.8,42.8,100,29.80,-9999.0,North,-9999.0,-,N/A,,Mostly Cloudy,0,2013-01-05 22:50:00
1:20 AM,42.8,42.8,100,29.80,-9999.0,North,-9999.0,-,N/A,,Mostly Cloudy,0,2013-01-05 23:20:00
1:50 AM,42.8,41.0,93,29.77,-9999.0,North,-9999.0,-,N/A,,Mostly Cloudy,0,2013-01-05 23:50:00
2:00 AM,43,41,91,29.79,6,Calm,Calm,,,,Partly Cloudy,,2013-01-06 00:00:00
2:20 AM,42.8,41.0,93,29.77,-9999.0,North,-9999.0,-,N/A,,Mostly Cloudy,0,2013-01-06 00:20:00
2:50 AM,42.8,41.0,93,29.80,-9999.0,North,-9999.0,-,N/A,,Mostly Cloudy,0,2013-01-06 00:50:00
3:20 AM,42.8,41.0,93,29.80,-9999.0,North,-9999.0,-,N/A,,Mostly Cloudy,0,2013-01-06 01:20:00
3:50 AM,42.8,41.0,93,29.80,-9999.0,North,-9999.0,-,N/A,,Mostly Cloudy,0,2013-01-06 01:50:00
4:20 AM,42.8,41.0,93,29.80,-9999.0,North,-9999.0,-,N/A,,Mostly Cloudy,0,2013-01-06 02:20:00
4:50 AM,41.0,41.0,100,29.80,-9999.0,North,-9999.0,-,N/A,,Mostly Cloudy,0,2013-01-06 02:50:00
5:50 AM,41.0,39.2,93,29.80,-9999.0,North,-9999.0,-,N/A,,Mostly Cloudy,0,2013-01-06 03:50:00
6:20 AM,41.0,39.2,93,29.80,-9999.0,North,-9999.0,-,N/A,,Mostly Cloudy,0,2013-01-06 04:20:00
6:50 AM,41.0,39.2,93,29.86,-9999.0,North,-9999.0,-,N/A,,Mostly Cloudy,0,2013-01-06 04:50:00
7:20 AM,41.0,39.2,93,29.86,-9999.0,North,-9999.0,-,N/A,,Mostly Cloudy,0,2013-01-06 05:20:00
7:50 AM,41.0,35.6,81,29.86,-9999.0,North,-9999.0,-,N/A,,Mostly Cloudy,0,2013-01-06 05:50:00
8:00 AM,41,35,73,29.87,6,Calm,Calm,,,,Mostly Cloudy,,2013-01-06 06:00:00
8:20 AM,41.0,35.6,81,29.86,-9999.0,North,-9999.0,-,N/A,,Mostly Cloudy,0,2013-01-06 06:20:00
8:50 AM,41.0,33.8,76,29.89,-9999.0,North,-9999.0,-,N/A,,Mostly Cloudy,0,2013-01-06 06:50:00
9:20 AM,41.0,33.8,76,29.89,-9999.0,North,-9999.0,-,N/A,,Mostly Cloudy,0,2013-01-06 07:20:00
9:50 AM,41.0,30.2,65,29.92,-9999.0,North,-9999.0,-,N/A,,Mostly Cloudy,0,2013-01-06 07:50:00
10:20 AM,41.0,30.2,65,29.92,-9999.0,North,-9999.0,-,N/A,,Mostly Cloudy,0,2013-01-06 08:20:00
10:50 AM,39.2,30.2,70,29.95,-9999.0,North,-9999.0,-,N/A,,Mostly Cloudy,0,2013-01-06 08:50:00
11:20 AM,39.2,30.2,70,29.95,-9999.0,North,-9999.0,-,N/A,,Mostly Cloudy,0,2013-01-06 09:20:00
11:50 AM,41.0,30.2,65,29.95,-9999.0,North,-9999.0,-,N/A,,Mostly Cloudy,0,2013-01-06 09:50:00
12:20 PM,41.0,30.2,65,29.95,-9999.0,North,-9999.0,-,N/A,,Mostly Cloudy,0,2013-01-06 10:20:00
12:50 PM,42.8,32.0,66,29.95,-9999.0,North,-9999.0,-,N/A,,Scattered Clouds,0,2013-01-06 10:50:00
1:20 PM,42.8,32.0,66,29.95,-9999.0,North,-9999.0,-,N/A,,Scattered Clouds,0,2013-01-06 11:20:00
1:50 PM,42.8,28.4,57,29.92,-9999.0,North,-9999.0,-,N/A,,Scattered Clouds,0,2013-01-06 11:50:00
2:00 PM,43,29,45,29.94,6,Calm,Calm,,,,Partly Cloudy,,2013-01-06 12:00:00
2:20 PM,42.8,28.4,57,29.92,-9999.0,North,-9999.0,-,N/A,,Scattered Clouds,0,2013-01-06 12:20:00
2:50 PM,44.6,32.0,61,29.92,-9999.0,North,-9999.0,-,N/A,,Scattered Clouds,0,2013-01-06 12:50:00
3:20 PM,42.8,32.0,66,29.92,-9999.0,North,-9999.0,-,N/A,,Scattered Clouds,0,2013-01-06 13:20:00
3:50 PM,42.8,26.6,53,29.95,-9999.0,North,-9999.0,-,N/A,,Scattered Clouds,0,2013-01-06 13:50:00
4:20 PM,42.8,26.6,53,29.95,-9999.0,North,-9999.0,-,N/A,,Scattered Clouds,0,2013-01-06 14:20:00
4:50 PM,41.0,26.6,57,29.95,-9999.0,North,-9999.0,-,N/A,,Scattered Clouds,0,2013-01-06 14:50:00
5:20 PM,41.0,26.6,57,29.95,-9999.0,North,-9999.0,-,N/A,,Scattered Clouds,0,2013-01-06 15:20:00
5:50 PM,41.0,28.4,61,29.95,-9999.0,North,-9999.0,-,N/A,,Scattered Clouds,0,2013-01-06 15:50:00
6:20 PM,39.2,28.4,65,29.95,-9999.0,North,-9999.0,-,N/A,,Scattered Clouds,0,2013-01-06 16:20:00
6:50 PM,39.2,28.4,65,29.95,-9999.0,North,-9999.0,-,N/A,,Scattered Clouds,0,2013-01-06 16:50:00
7:20 PM,39.2,28.4,65,29.95,-9999.0,North,-9999.0,-,N/A,,Scattered Clouds,0,2013-01-06 17:20:00
7:50 PM,39.2,26.6,61,29.95,-9999.0,North,-9999.0,-,N/A,,Scattered Clouds,0,2013-01-06 17:50:00
8:00 PM,39,27,50,29.96,6,Calm,Calm,,,,Scattered Clouds,,2013-01-06 18:00:00
8:20 PM,39.2,26.6,61,29.95,-9999.0,North,-9999.0,-,N/A,,Scattered Clouds,0,2013-01-06 18:20:00
8:50 PM,39.2,26.6,61,29.95,-9999.0,North,-9999.0,-,N/A,,Mostly Cloudy,0,2013-01-06 18:50:00
9:20 PM,37.4,26.6,65,29.95,-9999.0,North,-9999.0,-,N/A,,Mostly Cloudy,0,2013-01-06 19:20:00
9:50 PM,35.6,26.6,70,29.95,-9999.0,North,-9999.0,-,N/A,,Scattered Clouds,0,2013-01-06 19:50:00
10:20 PM,35.6,26.6,70,29.95,-9999.0,North,-9999.0,-,N/A,,Scattered Clouds,0,2013-01-06 20:20:00
10:50 PM,35.6,26.6,70,29.95,-9999.0,North,-9999.0,-,N/A,,Partly Cloudy,0,2013-01-06 20:50:00
11:20 PM,35.6,26.6,70,29.95,-9999.0,North,-9999.0,-,N/A,,Partly Cloudy,0,2013-01-06 21:20:00
11:50 PM,32.0,28.4,87,29.95,-9999.0,North,-9999.0,-,N/A,,Scattered Clouds,0,2013-01-06 21:50:00